Terminal Aerodrome Forecast
Issued by NWS

Home | Current Version | Previous Version | Text Only | Print | Product List | Glossary On
Versions: 1 2 3 4 5 6 7 8 9 10 11 12 13 14 15 16 17 18 19 20 21 22 23 24 25 26 27 28 29 30 31 32 33 34 35 36 37 38 39 40 41 42 43 44 45 46 47 48 49 50
168
FTUS43 KDDC 202341
TAFGCK
TAF
KGCK 202341Z 2100/2124 03008KT P6SM SKC
     FM211100 12005KT 3SM BR BKN003
     FM211400 18015KT P6SM BKN005
     FM211600 17010KT P6SM SCT009=

USA.gov is the U.S. government's official web portal to all federal, state and local government web resources and services.